createdAt,value
2017-02-19T00:00:41.928Z,3.5
2017-02-19T00:01:55.086Z,3.56
2017-02-19T00:03:08.218Z,3.53
2017-02-19T00:04:21.352Z,3.59
2017-02-19T00:05:34.412Z,3.49
2017-02-19T00:06:47.535Z,3.58
2017-02-19T00:08:00.627Z,3.49
2017-02-19T00:09:13.315Z,3.55
2017-02-19T00:10:26.027Z,3.49
2017-02-19T00:11:39.158Z,3.5
2017-02-19T00:12:51.835Z,3.55
2017-02-19T00:14:05.132Z,3.46
2017-02-19T00:15:17.823Z,3.49
2017-02-19T00:16:30.940Z,3.49
2017-02-19T00:17:44.037Z,3.52
2017-02-19T00:18:57.097Z,3.53
2017-02-19T00:20:09.807Z,3.46
2017-02-19T00:21:22.930Z,3.53
2017-02-19T00:22:35.252Z,3.49
2017-02-19T00:23:48.341Z,3.46
2017-02-19T00:25:01.420Z,3.48
2017-02-19T00:26:14.521Z,3.49
2017-02-19T00:27:27.223Z,3.48
2017-02-19T00:28:39.950Z,3.43
2017-02-19T00:29:53.045Z,3.43
2017-02-19T00:31:06.180Z,3.4
2017-02-19T00:32:19.245Z,3.45
2017-02-19T00:33:32.316Z,3.41
2017-02-19T00:34:44.637Z,3.43
2017-02-19T00:35:57.731Z,3.49
2017-02-19T00:37:10.504Z,3.46
2017-02-19T00:38:23.596Z,3.46
2017-02-19T00:39:36.337Z,3.45
2017-02-19T00:40:49.422Z,3.49
2017-02-19T00:42:02.537Z,3.49
2017-02-19T00:43:15.639Z,3.43
2017-02-19T00:44:28.710Z,3.36
2017-02-19T00:45:41.799Z,3.37
2017-02-19T00:46:54.876Z,3.4
2017-02-19T00:48:07.598Z,3.48
2017-02-19T00:49:20.710Z,3.46
2017-02-19T00:50:33.832Z,3.43
2017-02-19T00:51:46.554Z,3.43
2017-02-19T00:52:59.663Z,3.43
2017-02-19T00:54:12.754Z,3.46
2017-02-19T00:55:25.861Z,3.4
2017-02-19T00:56:38.931Z,3.45
2017-02-19T00:57:52.026Z,3.45
2017-02-19T00:59:05.103Z,3.43
2017-02-19T01:00:18.203Z,3.45
2017-02-19T01:01:31.302Z,3.36
2017-02-19T01:02:44.366Z,3.34
2017-02-19T01:03:57.085Z,3.37
2017-02-19T01:05:10.183Z,3.37
2017-02-19T01:06:23.303Z,3.37
2017-02-19T01:07:35.981Z,3.43
2017-02-19T01:08:49.052Z,3.37
2017-02-19T01:10:02.159Z,3.37
2017-02-19T01:11:15.262Z,3.4
2017-02-19T01:12:27.960Z,3.4
2017-02-19T01:13:41.304Z,3.43
2017-02-19T01:14:54.400Z,3.45
2017-02-19T01:16:07.123Z,3.45
2017-02-19T01:17:19.841Z,3.4
2017-02-19T01:18:32.930Z,3.36
2017-02-19T01:19:46.083Z,3.45
2017-02-19T01:20:59.196Z,3.37
2017-02-19T01:22:12.306Z,3.45
2017-02-19T01:23:25.053Z,3.46
2017-02-19T01:24:38.148Z,3.37
2017-02-19T01:25:51.257Z,3.37
2017-02-19T01:27:04.308Z,3.45
2017-02-19T01:28:17.410Z,3.41
2017-02-19T01:29:30.491Z,3.4
2017-02-19T01:30:43.577Z,3.43
2017-02-19T01:31:56.690Z,3.41
2017-02-19T01:33:09.771Z,3.37
2017-02-19T01:34:22.471Z,3.41
2017-02-19T01:35:35.205Z,3.46
2017-02-19T01:36:47.876Z,3.34
2017-02-19T01:38:00.953Z,3.4
2017-02-19T01:39:14.009Z,3.37
2017-02-19T01:40:27.038Z,3.4
2017-02-19T01:41:39.734Z,3.37
2017-02-19T01:42:52.862Z,3.34
2017-02-19T01:44:05.949Z,3.27
2017-02-19T01:45:18.253Z,3.31
2017-02-19T01:46:31.244Z,3.33
2017-02-19T01:47:44.306Z,3.36
2017-02-19T01:48:57.443Z,3.3
2017-02-19T01:50:10.137Z,3.21
2017-02-19T01:51:22.901Z,3.34
2017-02-19T01:52:35.997Z,3.27
2017-02-19T01:53:49.147Z,3.29
2017-02-19T01:55:02.263Z,3.36
2017-02-19T01:56:14.995Z,3.33
2017-02-19T01:57:28.136Z,3.27
2017-02-19T01:58:41.276Z,3.3
2017-02-19T01:59:54.320Z,3.37
2017-02-19T02:01:07.374Z,3.31
2017-02-19T02:02:20.064Z,3.3
2017-02-19T02:03:32.784Z,3.27
2017-02-19T02:04:45.854Z,3.34
2017-02-19T02:05:58.901Z,3.31
2017-02-19T02:07:12.020Z,3.3
2017-02-19T02:08:25.135Z,3.3
2017-02-19T02:09:38.170Z,3.22
2017-02-19T02:10:51.258Z,3.31
2017-02-19T02:12:04.349Z,3.22
2017-02-19T02:13:17.044Z,3.27
2017-02-19T02:14:30.153Z,3.27
2017-02-19T02:15:43.293Z,3.29
2017-02-19T02:16:56.007Z,3.33
2017-02-19T02:18:09.066Z,3.27
2017-02-19T02:19:21.732Z,3.33
2017-02-19T02:20:34.844Z,3.26
2017-02-19T02:21:47.998Z,3.27
2017-02-19T02:23:01.125Z,3.29
2017-02-19T02:24:13.813Z,3.31
2017-02-19T02:25:26.759Z,3.31
2017-02-19T02:26:39.482Z,3.29
2017-02-19T02:27:52.158Z,3.29
2017-02-19T02:29:05.255Z,3.33
2017-02-19T02:30:17.975Z,3.3
2017-02-19T02:31:30.700Z,3.27
2017-02-19T02:32:43.792Z,3.34
2017-02-19T02:33:56.907Z,3.29
2017-02-19T02:35:10.032Z,3.36
2017-02-19T02:36:23.129Z,3.3
2017-02-19T02:37:36.274Z,3.33
2017-02-19T02:38:48.965Z,3.26
2017-02-19T02:40:02.040Z,3.3
2017-02-19T02:41:14.755Z,3.3
2017-02-19T02:42:27.485Z,3.34
2017-02-19T02:43:40.223Z,3.3
2017-02-19T02:44:53.376Z,3.3
2017-02-19T02:46:06.097Z,3.29
2017-02-19T02:47:18.792Z,3.33
2017-02-19T02:48:31.491Z,3.3
2017-02-19T02:49:44.595Z,3.26
2017-02-19T02:50:57.666Z,3.27
2017-02-19T02:52:10.669Z,3.33
2017-02-19T02:53:23.764Z,3.29
2017-02-19T02:54:36.845Z,3.27
2017-02-19T02:55:49.987Z,3.27
2017-02-19T02:57:03.081Z,3.34
2017-02-19T02:58:15.773Z,3.22
2017-02-19T02:59:28.869Z,3.37
2017-02-19T03:00:41.916Z,3.26
2017-02-19T03:01:55.018Z,3.29
2017-02-19T03:03:08.167Z,3.31
2017-02-19T03:04:21.227Z,3.27
2017-02-19T03:05:34.352Z,3.3
2017-02-19T03:06:47.418Z,3.18
2017-02-19T03:08:00.517Z,3.18
2017-02-19T03:09:13.216Z,3.22
2017-02-19T03:10:25.940Z,3.26
2017-02-19T03:11:39.010Z,3.31
2017-02-19T03:12:52.131Z,3.33
2017-02-19T03:14:05.251Z,3.19
2017-02-19T03:15:17.564Z,3.06
2017-02-19T03:16:30.660Z,3.24
2017-02-19T03:17:43.768Z,3.15
2017-02-19T03:18:56.922Z,3.21
2017-02-19T03:20:09.625Z,3.09
2017-02-19T03:21:22.372Z,3.06
2017-02-19T03:22:35.103Z,3.12
2017-02-19T03:23:48.169Z,3.13
2017-02-19T03:25:01.546Z,3.12
2017-02-19T03:26:14.686Z,3.13
2017-02-19T03:27:27.809Z,3.08
2017-02-19T03:28:40.920Z,3.09
2017-02-19T03:29:53.994Z,3.11
2017-02-19T03:31:07.080Z,3.08
2017-02-19T03:32:20.159Z,3.08
2017-02-19T03:33:33.249Z,3.08
2017-02-19T03:34:46.303Z,3.06
2017-02-19T03:35:59.371Z,3.05
2017-02-19T03:37:12.047Z,2.97
2017-02-19T03:38:25.162Z,3.09
2017-02-19T03:39:38.290Z,2.97
2017-02-19T03:40:51.403Z,3
2017-02-19T03:42:04.476Z,2.98
2017-02-19T03:43:17.152Z,3.08
2017-02-19T03:44:30.266Z,3.08
2017-02-19T03:45:43.344Z,2.97
2017-02-19T03:46:56.452Z,3.03
2017-02-19T03:48:08.758Z,3.05
2017-02-19T03:49:21.826Z,3.09
2017-02-19T03:50:34.878Z,3.05
2017-02-19T03:51:47.975Z,3.03
2017-02-19T03:53:01.056Z,3.05
2017-02-19T03:54:14.143Z,3.03
2017-02-19T03:55:27.279Z,2.87
2017-02-19T03:56:40.333Z,2.98
2017-02-19T03:57:53.678Z,2.93
2017-02-19T03:59:06.741Z,2.97
2017-02-19T04:00:18.664Z,2.88
2017-02-19T04:01:31.791Z,2.93
2017-02-19T04:02:44.856Z,2.93
2017-02-19T04:03:57.944Z,2.88
2017-02-19T04:05:11.029Z,2.88
2017-02-19T04:06:24.111Z,2.82
2017-02-19T04:07:37.213Z,2.87
2017-02-19T04:08:50.327Z,2.7
2017-02-19T04:10:03.432Z,2.72
2017-02-19T04:11:15.337Z,2.7
2017-02-19T04:12:28.399Z,2.68
2017-02-19T04:13:41.473Z,2.54
2017-02-19T04:14:54.571Z,2.43
2017-02-19T04:16:07.684Z,2.52
2017-02-19T04:17:20.356Z,2.43
2017-02-19T04:18:33.483Z,2.39
2017-02-19T04:19:46.573Z,2.39
2017-02-19T04:20:59.644Z,2.33
2017-02-19T04:22:12.714Z,2.33
2017-02-19T04:23:25.818Z,2.16
2017-02-19T04:24:38.956Z,2.15
2017-02-19T04:25:52.071Z,2.14
2017-02-19T04:27:05.174Z,2.12
2017-02-19T04:28:18.256Z,2.1
2017-02-19T04:29:31.383Z,2.03
2017-02-19T04:30:44.392Z,2.01
2017-02-19T04:31:57.480Z,1.93
2017-02-19T04:33:09.820Z,1.92
2017-02-19T04:34:22.905Z,1.89
2017-02-19T04:35:35.994Z,1.82
2017-02-19T04:36:49.122Z,1.81
2017-02-19T04:38:02.237Z,1.68
2017-02-19T04:39:15.299Z,1.66
2017-02-19T04:40:28.360Z,1.7
2017-02-19T04:41:41.499Z,1.6
2017-02-19T04:42:54.562Z,1.64
2017-02-19T04:44:07.640Z,1.6
2017-02-19T04:45:20.735Z,1.48
2017-02-19T04:46:33.863Z,1.49
2017-02-19T04:47:46.610Z,1.34
2017-02-19T04:48:59.685Z,1.36
2017-02-19T04:50:12.395Z,1.36
2017-02-19T04:51:25.472Z,1.25
2017-02-19T04:52:38.568Z,1.32
2017-02-19T04:53:51.651Z,1.28
2017-02-19T04:55:04.741Z,1.16
2017-02-19T04:56:17.423Z,1.38
2017-02-19T04:57:30.128Z,1.28
2017-02-19T04:58:43.197Z,1.14
2017-02-19T04:59:56.287Z,1.18
2017-02-19T05:01:09.008Z,1.13
2017-02-19T05:02:21.666Z,1.13
2017-02-19T05:03:34.736Z,1.06
2017-02-19T05:04:47.802Z,1.02
2017-02-19T05:06:00.517Z,0.99
2017-02-19T05:07:13.254Z,0.99
2017-02-19T05:08:26.358Z,0.94
2017-02-19T05:09:39.460Z,0.99
2017-02-19T05:10:52.550Z,0.81
2017-02-19T05:12:05.645Z,0.94
2017-02-19T05:13:18.359Z,0.81
2017-02-19T05:14:31.684Z,0.77
2017-02-19T05:15:44.734Z,0.77
2017-02-19T05:16:57.785Z,0.77
2017-02-19T05:18:10.482Z,0.82
2017-02-19T05:19:22.857Z,0.71
2017-02-19T05:20:35.616Z,0.66
2017-02-19T05:21:48.749Z,0.58
2017-02-19T05:23:01.814Z,0.55
2017-02-19T05:24:14.529Z,0.67
2017-02-19T05:25:27.626Z,0.58
2017-02-19T05:26:40.678Z,0.51
2017-02-19T05:27:53.761Z,0.56
2017-02-19T05:29:06.870Z,0.51
2017-02-19T05:30:19.635Z,0.42
2017-02-19T05:31:32.730Z,0.42
2017-02-19T05:32:45.800Z,0.37
2017-02-19T05:33:58.948Z,0.4
2017-02-19T05:35:12.037Z,0.36
2017-02-19T05:36:25.120Z,0.29
2017-02-19T05:37:37.816Z,0.34
2017-02-19T05:38:50.923Z,0.36
2017-02-19T05:40:04.058Z,0.34
2017-02-19T05:41:17.153Z,0.34
2017-02-19T05:42:30.249Z,0.26
2017-02-19T05:43:43.363Z,0.27
2017-02-19T05:44:56.490Z,0.27
2017-02-19T05:46:09.598Z,0.26
2017-02-19T05:47:22.707Z,0.27
2017-02-19T05:48:35.770Z,0.23
2017-02-19T05:49:48.517Z,0.23
2017-02-19T05:51:01.540Z,0.19
2017-02-19T05:52:14.642Z,0.19
2017-02-19T05:53:27.730Z,0.15
2017-02-19T05:54:40.833Z,0.06
2017-02-19T05:55:53.904Z,0
2017-02-19T05:57:06.617Z,0.08
2017-02-19T05:58:19.376Z,0.12
2017-02-19T05:59:32.502Z,0.02
2017-02-19T06:00:45.187Z,0.05
2017-02-19T06:01:58.321Z,0.06
2017-02-19T06:03:11.416Z,-0.09
2017-02-19T06:04:24.093Z,-0.07
2017-02-19T06:05:37.207Z,-0.05
2017-02-19T06:06:50.291Z,-0.03
2017-02-19T06:08:03.013Z,-0.07
2017-02-19T06:09:15.677Z,-0.12
2017-02-19T06:10:28.753Z,-0.03
2017-02-19T06:11:41.443Z,-0.12
2017-02-19T06:12:54.164Z,-0.09
2017-02-19T06:14:07.292Z,-0.05
2017-02-19T06:15:20.006Z,-0.18
2017-02-19T06:16:33.111Z,-0.17
2017-02-19T06:17:46.203Z,-0.23
2017-02-19T06:18:59.294Z,-0.18
2017-02-19T06:20:12.415Z,-0.2
2017-02-19T06:21:25.492Z,-0.18
2017-02-19T06:22:38.588Z,-0.28
2017-02-19T06:23:51.728Z,-0.2
2017-02-19T06:25:04.855Z,-0.27
2017-02-19T06:26:17.592Z,-0.28
2017-02-19T06:27:30.702Z,-0.3
2017-02-19T06:28:43.385Z,-0.26
2017-02-19T06:29:56.057Z,-0.26
2017-02-19T06:31:09.147Z,-0.31
2017-02-19T06:32:21.084Z,-0.28
2017-02-19T06:33:34.122Z,-0.31
2017-02-19T06:34:47.208Z,-0.28
2017-02-19T06:35:59.891Z,-0.35
2017-02-19T06:37:12.635Z,-0.23
2017-02-19T06:38:25.704Z,-0.28
2017-02-19T06:39:38.407Z,-0.33
2017-02-19T06:40:51.470Z,-0.26
2017-02-19T06:42:04.608Z,-0.18
2017-02-19T06:43:16.945Z,-0.24
2017-02-19T06:44:30.016Z,-0.21
2017-02-19T06:45:43.103Z,-0.26
2017-02-19T06:46:56.205Z,-0.27
2017-02-19T06:48:09.296Z,-0.18
2017-02-19T06:49:22.392Z,-0.17
2017-02-19T06:50:35.063Z,-0.12
2017-02-19T06:51:48.129Z,-0.09
2017-02-19T06:53:01.260Z,-0.05
2017-02-19T06:54:13.930Z,-0.09
2017-02-19T06:55:27.027Z,0.09
2017-02-19T06:56:40.092Z,0.06
2017-02-19T06:57:53.188Z,0.24
2017-02-19T06:59:06.308Z,0.19
2017-02-19T07:00:19.397Z,0.33
2017-02-19T07:01:32.482Z,0.33
2017-02-19T07:02:45.533Z,0.39
2017-02-19T07:03:58.623Z,0.49
2017-02-19T07:05:11.762Z,0.59
2017-02-19T07:06:24.440Z,0.7
2017-02-19T07:07:37.530Z,0.7
2017-02-19T07:08:50.679Z,0.77
2017-02-19T07:10:03.797Z,0.84
2017-02-19T07:11:16.141Z,0.94
2017-02-19T07:12:28.893Z,0.96
2017-02-19T07:13:41.861Z,1
2017-02-19T07:14:54.978Z,1.04
2017-02-19T07:16:08.068Z,1
2017-02-19T07:17:21.139Z,1.14
2017-02-19T07:18:34.224Z,1.2
2017-02-19T07:19:47.316Z,1.21
2017-02-19T07:21:00.366Z,1.32
2017-02-19T07:22:13.061Z,1.2
2017-02-19T07:23:25.732Z,1.25
2017-02-19T07:24:38.452Z,1.3
2017-02-19T07:25:51.524Z,1.32
2017-02-19T07:27:04.620Z,1.38
2017-02-19T07:28:17.340Z,1.4
2017-02-19T07:29:30.505Z,1.38
2017-02-19T07:30:43.577Z,1.49
2017-02-19T07:31:56.720Z,1.57
2017-02-19T07:33:09.824Z,1.64
2017-02-19T07:34:22.531Z,1.64
2017-02-19T07:35:35.583Z,1.67
2017-02-19T07:36:48.705Z,1.7
2017-02-19T07:38:01.770Z,1.78
2017-02-19T07:39:14.903Z,1.76
2017-02-19T07:40:27.986Z,1.82
2017-02-19T07:41:41.057Z,1.85
2017-02-19T07:42:54.135Z,1.89
2017-02-19T07:44:07.255Z,1.92
2017-02-19T07:45:20.351Z,1.98
2017-02-19T07:46:33.489Z,2.04
2017-02-19T07:47:46.561Z,2.12
2017-02-19T07:48:59.731Z,2.1
2017-02-19T07:50:12.841Z,2.22
2017-02-19T07:51:25.543Z,2.33
2017-02-19T07:52:38.622Z,2.36
2017-02-19T07:53:51.715Z,2.41
2017-02-19T07:55:04.786Z,2.37
2017-02-19T07:56:17.507Z,2.5
2017-02-19T07:57:30.191Z,2.59
2017-02-19T07:58:43.268Z,2.72
2017-02-19T07:59:56.358Z,2.75
2017-02-19T08:01:09.734Z,2.79
2017-02-19T08:02:22.892Z,2.8
2017-02-19T08:03:35.546Z,2.9
2017-02-19T08:04:48.684Z,2.9
2017-02-19T08:06:01.789Z,2.94
2017-02-19T08:07:14.920Z,3.06
2017-02-19T08:08:27.972Z,3.05
2017-02-19T08:09:40.726Z,3.05
2017-02-19T08:10:53.865Z,3.05
2017-02-19T08:12:06.935Z,3.08
2017-02-19T08:13:20.007Z,3.05
2017-02-19T08:14:33.114Z,3.11
2017-02-19T08:15:45.448Z,3.16
2017-02-19T08:16:58.525Z,3.12
2017-02-19T08:18:11.615Z,3.21
2017-02-19T08:19:24.754Z,3.21
2017-02-19T08:20:37.432Z,3.33
2017-02-19T08:21:50.478Z,3.26
2017-02-19T08:23:03.572Z,3.31
2017-02-19T08:24:16.226Z,3.31
2017-02-19T08:25:29.366Z,3.29
2017-02-19T08:26:42.468Z,3.45
2017-02-19T08:27:55.582Z,3.45
2017-02-19T08:29:08.653Z,3.4
2017-02-19T08:30:21.781Z,3.45
2017-02-19T08:31:34.476Z,3.49
2017-02-19T08:32:47.597Z,3.53
2017-02-19T08:34:00.660Z,3.67
2017-02-19T08:35:13.750Z,3.73
2017-02-19T08:36:26.828Z,3.73
2017-02-19T08:37:39.555Z,3.86
2017-02-19T08:38:52.645Z,3.86
2017-02-19T08:40:05.314Z,3.91
2017-02-19T08:41:17.293Z,4.02
2017-02-19T08:42:30.008Z,4.07
2017-02-19T08:43:43.102Z,4.06
2017-02-19T08:44:56.199Z,4.2
2017-02-19T08:46:08.881Z,4.21
2017-02-19T08:47:21.972Z,4.25
2017-02-19T08:48:35.110Z,4.18
2017-02-19T08:49:48.214Z,4.22
2017-02-19T08:51:01.278Z,4.4
2017-02-19T08:52:14.328Z,4.34
2017-02-19T08:53:27.427Z,4.39
2017-02-19T08:54:40.501Z,4.45
2017-02-19T08:55:53.619Z,4.49
2017-02-19T08:57:06.689Z,4.5
2017-02-19T08:58:19.811Z,4.52
2017-02-19T08:59:32.881Z,4.66
2017-02-19T09:00:45.988Z,4.58
2017-02-19T09:01:59.132Z,4.78
2017-02-19T09:03:12.241Z,4.74
2017-02-19T09:04:25.327Z,4.68
2017-02-19T09:05:38.412Z,4.75
2017-02-19T09:06:51.499Z,4.7
2017-02-19T09:08:04.623Z,4.86
2017-02-19T09:09:17.727Z,4.86
2017-02-19T09:10:30.494Z,4.9
2017-02-19T09:11:43.566Z,4.97
2017-02-19T09:12:56.661Z,4.95
2017-02-19T09:14:09.751Z,4.92
2017-02-19T09:15:22.790Z,4.95
2017-02-19T09:16:35.868Z,4.95
2017-02-19T09:17:48.956Z,5.05
2017-02-19T09:19:02.027Z,5.02
2017-02-19T09:20:15.116Z,5
2017-02-19T09:21:28.201Z,5.05
2017-02-19T09:22:41.272Z,5.16
2017-02-19T09:23:54.317Z,5.15
2017-02-19T09:25:07.419Z,5.22
2017-02-19T09:26:20.539Z,5.25
2017-02-19T09:27:33.655Z,5.2
2017-02-19T09:28:46.743Z,5.28
2017-02-19T09:29:59.828Z,5.38
2017-02-19T09:31:12.524Z,5.36
2017-02-19T09:32:25.641Z,5.43
2017-02-19T09:33:38.431Z,5.41
2017-02-19T09:34:51.461Z,5.51
2017-02-19T09:36:04.518Z,5.64
2017-02-19T09:37:17.597Z,5.59
2017-02-19T09:38:30.710Z,5.56
2017-02-19T09:39:43.364Z,5.59
2017-02-19T09:40:56.491Z,5.54
2017-02-19T09:42:09.562Z,5.62
2017-02-19T09:43:21.832Z,5.62
2017-02-19T09:44:34.897Z,5.54
2017-02-19T09:45:47.992Z,5.67
2017-02-19T09:47:01.057Z,5.64
2017-02-19T09:48:13.416Z,5.58
2017-02-19T09:49:26.463Z,5.72
2017-02-19T09:50:38.809Z,5.59
2017-02-19T09:51:51.929Z,5.74
2017-02-19T09:53:04.625Z,5.73
2017-02-19T09:54:17.296Z,5.76
2017-02-19T09:55:30.396Z,5.77
2017-02-19T09:56:43.506Z,5.72
2017-02-19T09:57:56.194Z,5.8
2017-02-19T09:59:09.272Z,5.8
2017-02-19T10:00:22.388Z,5.74
2017-02-19T10:01:35.497Z,5.87
2017-02-19T10:02:48.592Z,5.81
2017-02-19T10:04:01.682Z,5.91
2017-02-19T10:05:14.370Z,5.91
2017-02-19T10:06:27.441Z,5.9
2017-02-19T10:07:40.543Z,5.95
2017-02-19T10:08:53.658Z,5.92
2017-02-19T10:10:06.711Z,5.88
2017-02-19T10:11:18.232Z,6.05
2017-02-19T10:12:31.332Z,5.95
2017-02-19T10:13:44.447Z,6.05
2017-02-19T10:14:57.170Z,6.05
2017-02-19T10:16:10.266Z,6.13
2017-02-19T10:17:23.337Z,6.16
2017-02-19T10:18:36.456Z,6.13
2017-02-19T10:19:49.184Z,6.19
2017-02-19T10:21:01.950Z,6.28
2017-02-19T10:22:15.026Z,6.17
2017-02-19T10:23:28.083Z,6.19
2017-02-19T10:24:40.789Z,6.32
2017-02-19T10:25:53.888Z,6.31
2017-02-19T10:27:06.604Z,6.36
2017-02-19T10:28:19.306Z,6.5
2017-02-19T10:29:32.412Z,6.5
2017-02-19T10:30:45.508Z,6.5
2017-02-19T10:31:58.646Z,6.5
2017-02-19T10:33:11.756Z,6.62
2017-02-19T10:34:24.830Z,6.59
2017-02-19T10:35:37.977Z,6.57
2017-02-19T10:36:51.146Z,6.7
2017-02-19T10:38:03.841Z,6.72
2017-02-19T10:39:16.969Z,6.72
2017-02-19T10:40:30.033Z,6.67
2017-02-19T10:41:43.137Z,6.78
2017-02-19T10:42:56.256Z,6.77
2017-02-19T10:44:08.996Z,6.78
2017-02-19T10:45:22.117Z,6.8
2017-02-19T10:46:35.285Z,6.95
2017-02-19T10:47:48.459Z,6.86
2017-02-19T10:49:01.588Z,6.89
2017-02-19T10:50:14.318Z,6.89
2017-02-19T10:51:27.476Z,6.95
2017-02-19T10:52:40.573Z,7.03
2017-02-19T10:53:53.643Z,7.11
2017-02-19T10:55:06.768Z,7.11
2017-02-19T10:56:19.897Z,7.13
2017-02-19T10:57:32.976Z,7.19
2017-02-19T10:58:46.096Z,7.08
2017-02-19T10:59:59.128Z,7.19
2017-02-19T11:01:11.844Z,7.08
2017-02-19T11:02:24.994Z,7.23
2017-02-19T11:03:38.103Z,7.21
2017-02-19T11:04:51.249Z,7.19
2017-02-19T11:06:04.327Z,7.21
2017-02-19T11:07:17.418Z,7.28
2017-02-19T11:08:30.513Z,7.28
2017-02-19T11:09:43.640Z,7.29
2017-02-19T11:10:56.715Z,7.25
2017-02-19T11:12:09.817Z,7.22
2017-02-19T11:13:22.514Z,7.26
2017-02-19T11:14:35.618Z,7.29
2017-02-19T11:15:48.720Z,7.32
2017-02-19T11:17:01.852Z,7.39
2017-02-19T11:18:14.579Z,7.47
2017-02-19T11:19:27.694Z,7.46
2017-02-19T11:20:40.772Z,7.56
2017-02-19T11:21:54.149Z,7.53
2017-02-19T11:23:07.288Z,7.62
2017-02-19T11:24:19.984Z,7.62
2017-02-19T11:25:33.073Z,7.62
2017-02-19T11:26:46.151Z,7.66
2017-02-19T11:27:59.226Z,7.7
2017-02-19T11:29:12.329Z,7.81
2017-02-19T11:30:25.461Z,7.85
2017-02-19T11:31:37.852Z,7.87
2017-02-19T11:32:50.912Z,7.88
2017-02-19T11:34:04.001Z,7.93
2017-02-19T11:35:16.747Z,7.93
2017-02-19T11:36:29.873Z,7.96
2017-02-19T11:37:42.589Z,7.99
2017-02-19T11:38:55.260Z,8.05
2017-02-19T11:40:08.011Z,8.05
2017-02-19T11:41:20.327Z,8.05
2017-02-19T11:42:33.054Z,8.01
2017-02-19T11:43:45.792Z,8.01
2017-02-19T11:44:58.881Z,8.05
2017-02-19T11:46:11.592Z,8.03
2017-02-19T11:47:24.256Z,8.02
2017-02-19T11:48:37.407Z,8.01
2017-02-19T11:49:50.115Z,7.99
2017-02-19T11:51:02.824Z,7.88
2017-02-19T11:52:15.162Z,7.95
2017-02-19T11:53:28.252Z,7.96
2017-02-19T11:54:41.366Z,7.96
2017-02-19T11:55:54.126Z,8.05
2017-02-19T11:57:07.207Z,8.01
2017-02-19T11:58:20.355Z,8.03
2017-02-19T11:59:33.445Z,8.02
2017-02-19T12:00:46.568Z,8.03
2017-02-19T12:01:59.708Z,7.99
2017-02-19T12:03:12.752Z,7.98
2017-02-19T12:04:25.053Z,7.93
2017-02-19T12:05:38.173Z,8.01
2017-02-19T12:06:50.845Z,7.91
2017-02-19T12:08:03.939Z,7.93
2017-02-19T12:09:16.667Z,7.88
2017-02-19T12:10:29.759Z,7.87
2017-02-19T12:11:42.872Z,7.81
2017-02-19T12:12:55.969Z,7.84
2017-02-19T12:14:08.720Z,7.91
2017-02-19T12:15:21.816Z,7.78
2017-02-19T12:16:34.930Z,7.8
2017-02-19T12:17:47.609Z,7.84
2017-02-19T12:19:00.735Z,7.8
2017-02-19T12:20:13.445Z,7.77
2017-02-19T12:21:26.558Z,7.75
2017-02-19T12:22:39.664Z,7.72
2017-02-19T12:23:52.732Z,7.77
2017-02-19T12:25:05.395Z,7.83
2017-02-19T12:26:17.749Z,7.81
2017-02-19T12:27:30.869Z,7.84
2017-02-19T12:28:43.940Z,7.83
2017-02-19T12:29:57.062Z,7.88
2017-02-19T12:31:09.806Z,7.87
2017-02-19T12:32:22.521Z,7.93
2017-02-19T12:33:35.627Z,7.96
2017-02-19T12:34:48.696Z,8.05
2017-02-19T12:36:01.790Z,8.03
2017-02-19T12:37:14.148Z,8.14
2017-02-19T12:38:27.139Z,8.21
2017-02-19T12:39:40.234Z,8.24
2017-02-19T12:40:53.374Z,8.31
2017-02-19T12:42:06.493Z,8.32
2017-02-19T12:43:19.547Z,8.26
2017-02-19T12:44:32.666Z,8.35
2017-02-19T12:45:45.806Z,8.32
2017-02-19T12:46:58.891Z,8.35
2017-02-19T12:48:11.641Z,8.41
2017-02-19T12:49:24.729Z,8.49
2017-02-19T12:50:37.842Z,8.52
2017-02-19T12:51:50.927Z,8.56
2017-02-19T12:53:03.670Z,8.56
2017-02-19T12:54:16.785Z,8.63
2017-02-19T12:55:29.867Z,8.69
2017-02-19T12:56:43.025Z,8.77
2017-02-19T12:57:55.808Z,8.74
2017-02-19T12:59:08.911Z,8.78
2017-02-19T13:00:22.033Z,8.82
2017-02-19T13:01:34.760Z,8.93
2017-02-19T13:02:47.456Z,8.95
2017-02-19T13:04:00.521Z,9.11
2017-02-19T13:05:13.298Z,9.11
2017-02-19T13:06:26.419Z,9.21
2017-02-19T13:07:39.532Z,9.27
2017-02-19T13:08:51.879Z,9.24
2017-02-19T13:10:04.974Z,9.34
2017-02-19T13:11:18.113Z,9.34
2017-02-19T13:12:31.193Z,9.45
2017-02-19T13:13:44.288Z,9.45
2017-02-19T13:14:57.385Z,9.42
2017-02-19T13:16:10.403Z,9.42
2017-02-19T13:17:23.081Z,9.48
2017-02-19T13:18:35.827Z,9.39
2017-02-19T13:19:48.567Z,9.31
2017-02-19T13:21:01.668Z,9.33
2017-02-19T13:22:14.383Z,9.36
2017-02-19T13:23:27.478Z,9.37
2017-02-19T13:24:40.592Z,9.29
2017-02-19T13:25:53.677Z,9.31
2017-02-19T13:27:06.773Z,9.21
2017-02-19T13:28:19.845Z,9.16
2017-02-19T13:29:32.972Z,9.26
2017-02-19T13:30:45.353Z,9.18
2017-02-19T13:31:58.426Z,9.26
2017-02-19T13:33:11.523Z,9.19
2017-02-19T13:34:23.875Z,9.3
2017-02-19T13:35:36.970Z,9.18
2017-02-19T13:36:49.696Z,9.21
2017-02-19T13:38:02.812Z,9.26
2017-02-19T13:39:14.730Z,9.15
2017-02-19T13:40:27.404Z,9.11
2017-02-19T13:41:40.573Z,9.13
2017-02-19T13:42:53.939Z,9.15
2017-02-19T13:44:06.616Z,9.13
2017-02-19T13:45:19.330Z,9.11
2017-02-19T13:46:32.427Z,9.05
2017-02-19T13:47:45.524Z,9.08
2017-02-19T13:48:58.291Z,9.08
2017-02-19T13:50:11.437Z,9.08
2017-02-19T13:51:23.804Z,9.03
2017-02-19T13:52:36.937Z,9.09
2017-02-19T13:53:50.009Z,9.21
2017-02-19T13:55:03.098Z,9.08
2017-02-19T13:56:16.244Z,9.12
2017-02-19T13:57:29.347Z,9.15
2017-02-19T13:58:42.036Z,9.13
2017-02-19T13:59:54.731Z,9.18
2017-02-19T14:01:07.807Z,9.19
2017-02-19T14:02:20.173Z,9.15
2017-02-19T14:03:33.286Z,9.19
2017-02-19T14:04:46.357Z,9.15
2017-02-19T14:05:59.467Z,9.15
2017-02-19T14:07:12.563Z,9.12
2017-02-19T14:08:25.652Z,9.19
2017-02-19T14:09:38.773Z,9.12
2017-02-19T14:10:51.855Z,9.11
2017-02-19T14:12:05.015Z,9.18
2017-02-19T14:13:18.137Z,9.09
2017-02-19T14:14:31.256Z,9.02
2017-02-19T14:15:44.334Z,9.03
2017-02-19T14:16:57.416Z,9.09
2017-02-19T14:18:09.768Z,8.96
2017-02-19T14:19:22.469Z,8.99
2017-02-19T14:20:35.593Z,8.93
2017-02-19T14:21:48.305Z,8.96
2017-02-19T14:23:01.409Z,8.92
2017-02-19T14:24:14.130Z,8.9
2017-02-19T14:25:27.195Z,8.9
2017-02-19T14:26:40.265Z,8.81
2017-02-19T14:27:53.335Z,8.79
2017-02-19T14:29:06.437Z,8.87
2017-02-19T14:30:19.531Z,8.79
2017-02-19T14:31:32.224Z,8.81
2017-02-19T14:32:44.944Z,8.84
2017-02-19T14:33:57.998Z,8.87
2017-02-19T14:35:11.168Z,8.77
2017-02-19T14:36:24.265Z,8.75
2017-02-19T14:37:37.331Z,8.68
2017-02-19T14:38:50.431Z,8.6
2017-02-19T14:40:03.544Z,8.59
2017-02-19T14:41:15.847Z,8.59
2017-02-19T14:42:28.940Z,8.56
2017-02-19T14:43:41.639Z,8.54
2017-02-19T14:44:54.356Z,8.52
2017-02-19T14:46:07.062Z,8.44
2017-02-19T14:47:20.215Z,8.35
2017-02-19T14:48:33.297Z,8.42
2017-02-19T14:49:46.037Z,8.42
2017-02-19T14:50:59.108Z,8.23
2017-02-19T14:52:12.235Z,8.31
2017-02-19T14:53:25.379Z,8.34
2017-02-19T14:54:38.477Z,8.28
2017-02-19T14:55:51.191Z,8.26
2017-02-19T14:57:04.280Z,8.18
2017-02-19T14:58:17.376Z,8.17
2017-02-19T14:59:30.778Z,8.23
2017-02-19T15:00:43.900Z,8.03
2017-02-19T15:01:57.002Z,8.13
2017-02-19T15:03:10.098Z,8.09
2017-02-19T15:04:23.188Z,8.13
2017-02-19T15:05:36.290Z,8.05
2017-02-19T15:06:49.411Z,8.01
2017-02-19T15:08:02.102Z,7.96
2017-02-19T15:09:15.214Z,7.9
2017-02-19T15:10:28.277Z,7.87
2017-02-19T15:11:41.340Z,7.78
2017-02-19T15:12:54.426Z,7.75
2017-02-19T15:14:07.553Z,7.72
2017-02-19T15:15:20.642Z,7.72
2017-02-19T15:16:33.353Z,7.64
2017-02-19T15:17:46.490Z,7.53
2017-02-19T15:18:59.537Z,7.43
2017-02-19T15:20:12.685Z,7.43
2017-02-19T15:21:25.804Z,7.31
2017-02-19T15:22:38.935Z,7.29
2017-02-19T15:23:52.077Z,7.23
2017-02-19T15:25:05.190Z,7.08
2017-02-19T15:26:17.919Z,7.07
2017-02-19T15:27:31.009Z,6.93
2017-02-19T15:28:43.687Z,6.89
2017-02-19T15:29:56.401Z,6.85
2017-02-19T15:31:09.114Z,6.8
2017-02-19T15:32:22.220Z,6.65
2017-02-19T15:33:35.270Z,6.56
2017-02-19T15:34:48.365Z,6.6
2017-02-19T15:36:01.456Z,6.54
2017-02-19T15:37:14.801Z,6.49
2017-02-19T15:38:27.863Z,6.49
2017-02-19T15:39:40.942Z,6.43
2017-02-19T15:40:54.039Z,6.34
2017-02-19T15:42:07.141Z,6.22
2017-02-19T15:43:20.241Z,6.16
2017-02-19T15:44:33.344Z,6.15
2017-02-19T15:45:46.372Z,6.13
2017-02-19T15:46:59.444Z,6.15
2017-02-19T15:48:12.564Z,6.15
2017-02-19T15:49:25.634Z,6.05
2017-02-19T15:50:38.762Z,6.02
2017-02-19T15:51:51.875Z,6.07
2017-02-19T15:53:04.972Z,6.05
2017-02-19T15:54:18.068Z,6.07
2017-02-19T15:55:31.138Z,5.94
2017-02-19T15:56:44.235Z,5.92
2017-02-19T15:57:57.331Z,5.87
2017-02-19T15:59:10.026Z,5.95
2017-02-19T16:00:23.149Z,5.9
2017-02-19T16:01:35.819Z,5.91
2017-02-19T16:02:48.895Z,5.87
2017-02-19T16:04:02.010Z,5.79
2017-02-19T16:05:14.729Z,5.84
2017-02-19T16:06:27.809Z,5.81
2017-02-19T16:07:40.873Z,5.81
2017-02-19T16:08:53.952Z,5.76
2017-02-19T16:10:07.090Z,5.64
2017-02-19T16:11:20.236Z,5.74
2017-02-19T16:12:33.338Z,5.73